<?xml version="1.0" encoding="UTF-8" standalone="no" ?>
<gpx xmlns="http://www.topografix.com/GPX/1/1" xmlns:xsi="http://www.w3.org/2001/XMLSchema-instance" xsi:schemaLocation="http://www.topografix.com/GPX/1/1 http://www.topografix.com/GPX/1/1/gpx.xsd" version="1.1" creator="VisuGPX - https://www.visugpx.com">
  <metadata>
    <name>14582746-Magny Villarceaux 29km</name>
  </metadata>
  <trk>
    <name><![CDATA[14582746-Magny Villarceaux 29km]]></name>
    <trkseg>
      <trkpt lat="49.14761" lon="1.76951">
        <ele>65</ele>
        <time>2022-05-21T15:25:25Z</time>
      </trkpt>
      <trkpt lat="49.14822" lon="1.77022">
        <ele>64</ele>
        <time>2022-05-21T15:27:07Z</time>
      </trkpt>
      <trkpt lat="49.14892" lon="1.76985">
        <ele>62</ele>
        <time>2022-05-21T15:28:46Z</time>
      </trkpt>
      <trkpt lat="49.14942" lon="1.76969">
        <ele>61</ele>
        <time>2022-05-21T15:29:54Z</time>
      </trkpt>
      <trkpt lat="49.14996" lon="1.76928">
        <ele>61</ele>
        <time>2022-05-21T15:31:15Z</time>
      </trkpt>
      <trkpt lat="49.1507" lon="1.76861">
        <ele>70</ele>
        <time>2022-05-21T15:33:10Z</time>
      </trkpt>
      <trkpt lat="49.15124" lon="1.76805">
        <ele>81</ele>
        <time>2022-05-21T15:34:37Z</time>
      </trkpt>
      <trkpt lat="49.15149" lon="1.76791">
        <ele>87</ele>
        <time>2022-05-21T15:35:12Z</time>
      </trkpt>
      <trkpt lat="49.15218" lon="1.76736">
        <ele>95</ele>
        <time>2022-05-21T15:36:56Z</time>
      </trkpt>
      <trkpt lat="49.15317" lon="1.76642">
        <ele>100</ele>
        <time>2022-05-21T15:39:32Z</time>
      </trkpt>
      <trkpt lat="49.15405" lon="1.76556">
        <ele>102</ele>
        <time>2022-05-21T15:41:51Z</time>
      </trkpt>
      <trkpt lat="49.15488" lon="1.76514">
        <ele>100</ele>
        <time>2022-05-21T15:43:48Z</time>
      </trkpt>
      <trkpt lat="49.15546" lon="1.76471">
        <ele>100</ele>
        <time>2022-05-21T15:45:14Z</time>
      </trkpt>
      <trkpt lat="49.15591" lon="1.76413">
        <ele>100</ele>
        <time>2022-05-21T15:46:32Z</time>
      </trkpt>
      <trkpt lat="49.15619" lon="1.76379">
        <ele>100</ele>
        <time>2022-05-21T15:47:20Z</time>
      </trkpt>
      <trkpt lat="49.1566" lon="1.76312">
        <ele>101</ele>
        <time>2022-05-21T15:48:40Z</time>
      </trkpt>
      <trkpt lat="49.15689" lon="1.76192">
        <ele>105</ele>
        <time>2022-05-21T15:50:32Z</time>
      </trkpt>
      <trkpt lat="49.157" lon="1.76106">
        <ele>107</ele>
        <time>2022-05-21T15:51:48Z</time>
      </trkpt>
      <trkpt lat="49.1576" lon="1.75973">
        <ele>112</ele>
        <time>2022-05-21T15:54:09Z</time>
      </trkpt>
      <trkpt lat="49.15823" lon="1.7584">
        <ele>123</ele>
        <time>2022-05-21T15:56:32Z</time>
      </trkpt>
      <trkpt lat="49.15849" lon="1.75763">
        <ele>132</ele>
        <time>2022-05-21T15:57:48Z</time>
      </trkpt>
      <trkpt lat="49.15845" lon="1.75698">
        <ele>135</ele>
        <time>2022-05-21T15:58:45Z</time>
      </trkpt>
      <trkpt lat="49.15848" lon="1.75604">
        <ele>139</ele>
        <time>2022-05-21T16:00:07Z</time>
      </trkpt>
      <trkpt lat="49.1587" lon="1.7549">
        <ele>142</ele>
        <time>2022-05-21T16:01:51Z</time>
      </trkpt>
      <trkpt lat="49.15876" lon="1.75371">
        <ele>146</ele>
        <time>2022-05-21T16:03:35Z</time>
      </trkpt>
      <trkpt lat="49.1588" lon="1.75303">
        <ele>147</ele>
        <time>2022-05-21T16:04:35Z</time>
      </trkpt>
      <trkpt lat="49.15931" lon="1.75141">
        <ele>144</ele>
        <time>2022-05-21T16:07:11Z</time>
      </trkpt>
      <trkpt lat="49.16122" lon="1.75094">
        <ele>148</ele>
        <time>2022-05-21T16:11:30Z</time>
      </trkpt>
      <trkpt lat="49.16248" lon="1.74895">
        <ele>152</ele>
        <time>2022-05-21T16:15:31Z</time>
      </trkpt>
      <trkpt lat="49.16286" lon="1.74863">
        <ele>152</ele>
        <time>2022-05-21T16:16:29Z</time>
      </trkpt>
      <trkpt lat="49.16361" lon="1.74852">
        <ele>150</ele>
        <time>2022-05-21T16:18:10Z</time>
      </trkpt>
      <trkpt lat="49.16401" lon="1.74896">
        <ele>150</ele>
        <time>2022-05-21T16:19:16Z</time>
      </trkpt>
      <trkpt lat="49.1643" lon="1.74913">
        <ele>150</ele>
        <time>2022-05-21T16:19:57Z</time>
      </trkpt>
      <trkpt lat="49.16479" lon="1.74851">
        <ele>150</ele>
        <time>2022-05-21T16:21:22Z</time>
      </trkpt>
      <trkpt lat="49.16534" lon="1.74758">
        <ele>147</ele>
        <time>2022-05-21T16:23:11Z</time>
      </trkpt>
      <trkpt lat="49.16594" lon="1.74693">
        <ele>145</ele>
        <time>2022-05-21T16:24:49Z</time>
      </trkpt>
      <trkpt lat="49.16675" lon="1.74503">
        <ele>147</ele>
        <time>2022-05-21T16:28:07Z</time>
      </trkpt>
      <trkpt lat="49.16734" lon="1.74364">
        <ele>146</ele>
        <time>2022-05-21T16:30:32Z</time>
      </trkpt>
      <trkpt lat="49.16763" lon="1.74213">
        <ele>143</ele>
        <time>2022-05-21T16:32:49Z</time>
      </trkpt>
      <trkpt lat="49.16768" lon="1.7403">
        <ele>143</ele>
        <time>2022-05-21T16:35:29Z</time>
      </trkpt>
      <trkpt lat="49.16748" lon="1.73949">
        <ele>144</ele>
        <time>2022-05-21T16:36:45Z</time>
      </trkpt>
      <trkpt lat="49.16718" lon="1.73823">
        <ele>148</ele>
        <time>2022-05-21T16:38:42Z</time>
      </trkpt>
      <trkpt lat="49.16742" lon="1.73718">
        <ele>156</ele>
        <time>2022-05-21T16:40:19Z</time>
      </trkpt>
      <trkpt lat="49.16692" lon="1.73608">
        <ele>160</ele>
        <time>2022-05-21T16:42:16Z</time>
      </trkpt>
      <trkpt lat="49.16655" lon="1.73567">
        <ele>161</ele>
        <time>2022-05-21T16:43:16Z</time>
      </trkpt>
      <trkpt lat="49.16588" lon="1.73502">
        <ele>162</ele>
        <time>2022-05-21T16:45:02Z</time>
      </trkpt>
      <trkpt lat="49.16509" lon="1.73352">
        <ele>158</ele>
        <time>2022-05-21T16:47:50Z</time>
      </trkpt>
      <trkpt lat="49.16535" lon="1.73366">
        <ele>158</ele>
        <time>2022-05-21T16:48:27Z</time>
      </trkpt>
      <trkpt lat="49.16533" lon="1.73293">
        <ele>158</ele>
        <time>2022-05-21T16:49:31Z</time>
      </trkpt>
      <trkpt lat="49.16546" lon="1.73244">
        <ele>158</ele>
        <time>2022-05-21T16:50:17Z</time>
      </trkpt>
      <trkpt lat="49.16547" lon="1.73174">
        <ele>159</ele>
        <time>2022-05-21T16:51:18Z</time>
      </trkpt>
      <trkpt lat="49.16537" lon="1.73125">
        <ele>159</ele>
        <time>2022-05-21T16:52:03Z</time>
      </trkpt>
      <trkpt lat="49.16554" lon="1.73098">
        <ele>160</ele>
        <time>2022-05-21T16:52:36Z</time>
      </trkpt>
      <trkpt lat="49.16558" lon="1.73035">
        <ele>159</ele>
        <time>2022-05-21T16:53:31Z</time>
      </trkpt>
      <trkpt lat="49.16659" lon="1.72937">
        <ele>155</ele>
        <time>2022-05-21T16:56:11Z</time>
      </trkpt>
      <trkpt lat="49.16678" lon="1.72928">
        <ele>154</ele>
        <time>2022-05-21T16:56:37Z</time>
      </trkpt>
      <trkpt lat="49.16698" lon="1.72931">
        <ele>152</ele>
        <time>2022-05-21T16:57:04Z</time>
      </trkpt>
      <trkpt lat="49.1664" lon="1.7272">
        <ele>145</ele>
        <time>2022-05-21T17:00:24Z</time>
      </trkpt>
      <trkpt lat="49.1654" lon="1.72582">
        <ele>142</ele>
        <time>2022-05-21T17:03:23Z</time>
      </trkpt>
      <trkpt lat="49.16404" lon="1.72345">
        <ele>133</ele>
        <time>2022-05-21T17:07:59Z</time>
      </trkpt>
      <trkpt lat="49.16414" lon="1.72228">
        <ele>129</ele>
        <time>2022-05-21T17:09:41Z</time>
      </trkpt>
      <trkpt lat="49.1646" lon="1.72151">
        <ele>125</ele>
        <time>2022-05-21T17:11:12Z</time>
      </trkpt>
      <trkpt lat="49.16434" lon="1.71796">
        <ele>115</ele>
        <time>2022-05-21T17:16:24Z</time>
      </trkpt>
      <trkpt lat="49.16438" lon="1.71633">
        <ele>107</ele>
        <time>2022-05-21T17:18:47Z</time>
      </trkpt>
      <trkpt lat="49.16389" lon="1.7148">
        <ele>103</ele>
        <time>2022-05-21T17:21:15Z</time>
      </trkpt>
      <trkpt lat="49.16323" lon="1.71329">
        <ele>106</ele>
        <time>2022-05-21T17:23:54Z</time>
      </trkpt>
      <trkpt lat="49.16284" lon="1.71181">
        <ele>103</ele>
        <time>2022-05-21T17:26:13Z</time>
      </trkpt>
      <trkpt lat="49.16247" lon="1.7108">
        <ele>97</ele>
        <time>2022-05-21T17:27:54Z</time>
      </trkpt>
      <trkpt lat="49.16242" lon="1.71046">
        <ele>96</ele>
        <time>2022-05-21T17:28:24Z</time>
      </trkpt>
      <trkpt lat="49.16218" lon="1.70996">
        <ele>94</ele>
        <time>2022-05-21T17:29:18Z</time>
      </trkpt>
      <trkpt lat="49.16147" lon="1.70959">
        <ele>92</ele>
        <time>2022-05-21T17:30:59Z</time>
      </trkpt>
      <trkpt lat="49.16155" lon="1.70902">
        <ele>96</ele>
        <time>2022-05-21T17:31:49Z</time>
      </trkpt>
      <trkpt lat="49.16106" lon="1.70766">
        <ele>98</ele>
        <time>2022-05-21T17:34:05Z</time>
      </trkpt>
      <trkpt lat="49.16069" lon="1.70708">
        <ele>98</ele>
        <time>2022-05-21T17:35:16Z</time>
      </trkpt>
      <trkpt lat="49.15916" lon="1.70563">
        <ele>91</ele>
        <time>2022-05-21T17:39:16Z</time>
      </trkpt>
      <trkpt lat="49.1589" lon="1.70503">
        <ele>91</ele>
        <time>2022-05-21T17:40:19Z</time>
      </trkpt>
      <trkpt lat="49.15825" lon="1.70429">
        <ele>89</ele>
        <time>2022-05-21T17:42:07Z</time>
      </trkpt>
      <trkpt lat="49.15739" lon="1.70306">
        <ele>91</ele>
        <time>2022-05-21T17:44:44Z</time>
      </trkpt>
      <trkpt lat="49.15684" lon="1.70259">
        <ele>92</ele>
        <time>2022-05-21T17:46:08Z</time>
      </trkpt>
      <trkpt lat="49.15626" lon="1.70173">
        <ele>95</ele>
        <time>2022-05-21T17:47:56Z</time>
      </trkpt>
      <trkpt lat="49.15613" lon="1.70002">
        <ele>96</ele>
        <time>2022-05-21T17:50:26Z</time>
      </trkpt>
      <trkpt lat="49.15606" lon="1.69829">
        <ele>94</ele>
        <time>2022-05-21T17:52:57Z</time>
      </trkpt>
      <trkpt lat="49.15585" lon="1.69583">
        <ele>98</ele>
        <time>2022-05-21T17:56:34Z</time>
      </trkpt>
      <trkpt lat="49.15568" lon="1.69363">
        <ele>98</ele>
        <time>2022-05-21T17:59:47Z</time>
      </trkpt>
      <trkpt lat="49.15531" lon="1.69164">
        <ele>95</ele>
        <time>2022-05-21T18:02:48Z</time>
      </trkpt>
      <trkpt lat="49.15428" lon="1.68639">
        <ele>99</ele>
        <time>2022-05-21T18:10:46Z</time>
      </trkpt>
      <trkpt lat="49.1542" lon="1.68549">
        <ele>104</ele>
        <time>2022-05-21T18:12:05Z</time>
      </trkpt>
      <trkpt lat="49.15349" lon="1.68357">
        <ele>107</ele>
        <time>2022-05-21T18:15:18Z</time>
      </trkpt>
      <trkpt lat="49.15316" lon="1.68256">
        <ele>109</ele>
        <time>2022-05-21T18:16:56Z</time>
      </trkpt>
      <trkpt lat="49.15298" lon="1.68111">
        <ele>111</ele>
        <time>2022-05-21T18:19:05Z</time>
      </trkpt>
      <trkpt lat="49.15273" lon="1.68028">
        <ele>111</ele>
        <time>2022-05-21T18:20:25Z</time>
      </trkpt>
      <trkpt lat="49.1524" lon="1.67971">
        <ele>110</ele>
        <time>2022-05-21T18:21:31Z</time>
      </trkpt>
      <trkpt lat="49.15039" lon="1.67669">
        <ele>102</ele>
        <time>2022-05-21T18:27:48Z</time>
      </trkpt>
      <trkpt lat="49.15016" lon="1.67619">
        <ele>101</ele>
        <time>2022-05-21T18:28:41Z</time>
      </trkpt>
      <trkpt lat="49.14968" lon="1.67563">
        <ele>93</ele>
        <time>2022-05-21T18:30:01Z</time>
      </trkpt>
      <trkpt lat="49.1488" lon="1.67475">
        <ele>78</ele>
        <time>2022-05-21T18:32:22Z</time>
      </trkpt>
      <trkpt lat="49.14918" lon="1.67319">
        <ele>79</ele>
        <time>2022-05-21T18:34:47Z</time>
      </trkpt>
      <trkpt lat="49.14966" lon="1.67295">
        <ele>80</ele>
        <time>2022-05-21T18:35:54Z</time>
      </trkpt>
      <trkpt lat="49.14975" lon="1.67272">
        <ele>79</ele>
        <time>2022-05-21T18:36:18Z</time>
      </trkpt>
      <trkpt lat="49.14859" lon="1.67192">
        <ele>71</ele>
        <time>2022-05-21T18:39:08Z</time>
      </trkpt>
      <trkpt lat="49.14826" lon="1.67176">
        <ele>69</ele>
        <time>2022-05-21T18:39:54Z</time>
      </trkpt>
      <trkpt lat="49.14538" lon="1.67124">
        <ele>35</ele>
        <time>2022-05-21T18:46:21Z</time>
      </trkpt>
      <trkpt lat="49.14494" lon="1.67119">
        <ele>32</ele>
        <time>2022-05-21T18:47:20Z</time>
      </trkpt>
      <trkpt lat="49.14267" lon="1.66999">
        <ele>46</ele>
        <time>2022-05-21T18:52:40Z</time>
      </trkpt>
      <trkpt lat="49.13915" lon="1.66697">
        <ele>46</ele>
        <time>2022-05-21T19:01:39Z</time>
      </trkpt>
      <trkpt lat="49.13678" lon="1.6681">
        <ele>54</ele>
        <time>2022-05-21T19:07:10Z</time>
      </trkpt>
      <trkpt lat="49.13403" lon="1.67035">
        <ele>68</ele>
        <time>2022-05-21T19:14:07Z</time>
      </trkpt>
      <trkpt lat="49.13336" lon="1.67105">
        <ele>74</ele>
        <time>2022-05-21T19:15:55Z</time>
      </trkpt>
      <trkpt lat="49.13269" lon="1.67202">
        <ele>83</ele>
        <time>2022-05-21T19:17:58Z</time>
      </trkpt>
      <trkpt lat="49.13149" lon="1.67188">
        <ele>100</ele>
        <time>2022-05-21T19:20:39Z</time>
      </trkpt>
      <trkpt lat="49.13039" lon="1.67255">
        <ele>111</ele>
        <time>2022-05-21T19:23:17Z</time>
      </trkpt>
      <trkpt lat="49.12973" lon="1.67277">
        <ele>114</ele>
        <time>2022-05-21T19:24:47Z</time>
      </trkpt>
      <trkpt lat="49.12796" lon="1.674">
        <ele>116</ele>
        <time>2022-05-21T19:29:06Z</time>
      </trkpt>
      <trkpt lat="49.12767" lon="1.67538">
        <ele>109</ele>
        <time>2022-05-21T19:31:13Z</time>
      </trkpt>
      <trkpt lat="49.12704" lon="1.67694">
        <ele>96</ele>
        <time>2022-05-21T19:33:53Z</time>
      </trkpt>
      <trkpt lat="49.12656" lon="1.67747">
        <ele>91</ele>
        <time>2022-05-21T19:35:12Z</time>
      </trkpt>
      <trkpt lat="49.1262" lon="1.67776">
        <ele>89</ele>
        <time>2022-05-21T19:36:06Z</time>
      </trkpt>
      <trkpt lat="49.12599" lon="1.67843">
        <ele>83</ele>
        <time>2022-05-21T19:37:11Z</time>
      </trkpt>
      <trkpt lat="49.12612" lon="1.6787">
        <ele>81</ele>
        <time>2022-05-21T19:37:40Z</time>
      </trkpt>
      <trkpt lat="49.12563" lon="1.6795">
        <ele>76</ele>
        <time>2022-05-21T19:39:16Z</time>
      </trkpt>
      <trkpt lat="49.12466" lon="1.68195">
        <ele>76</ele>
        <time>2022-05-21T19:43:26Z</time>
      </trkpt>
      <trkpt lat="49.12433" lon="1.68369">
        <ele>76</ele>
        <time>2022-05-21T19:46:04Z</time>
      </trkpt>
      <trkpt lat="49.12416" lon="1.68464">
        <ele>76</ele>
        <time>2022-05-21T19:47:30Z</time>
      </trkpt>
      <trkpt lat="49.12388" lon="1.68544">
        <ele>76</ele>
        <time>2022-05-21T19:48:50Z</time>
      </trkpt>
      <trkpt lat="49.12355" lon="1.68646">
        <ele>75</ele>
        <time>2022-05-21T19:50:29Z</time>
      </trkpt>
      <trkpt lat="49.12258" lon="1.68686">
        <ele>78</ele>
        <time>2022-05-21T19:52:43Z</time>
      </trkpt>
      <trkpt lat="49.12226" lon="1.68691">
        <ele>79</ele>
        <time>2022-05-21T19:53:26Z</time>
      </trkpt>
      <trkpt lat="49.12157" lon="1.68692">
        <ele>82</ele>
        <time>2022-05-21T19:54:58Z</time>
      </trkpt>
      <trkpt lat="49.12116" lon="1.68674">
        <ele>83</ele>
        <time>2022-05-21T19:55:55Z</time>
      </trkpt>
      <trkpt lat="49.12134" lon="1.6876">
        <ele>82</ele>
        <time>2022-05-21T19:57:14Z</time>
      </trkpt>
      <trkpt lat="49.12138" lon="1.68836">
        <ele>80</ele>
        <time>2022-05-21T19:58:20Z</time>
      </trkpt>
      <trkpt lat="49.12166" lon="1.68877">
        <ele>80</ele>
        <time>2022-05-21T19:59:12Z</time>
      </trkpt>
      <trkpt lat="49.12158" lon="1.68985">
        <ele>84</ele>
        <time>2022-05-21T20:00:47Z</time>
      </trkpt>
      <trkpt lat="49.12187" lon="1.69117">
        <ele>83</ele>
        <time>2022-05-21T20:02:49Z</time>
      </trkpt>
      <trkpt lat="49.12162" lon="1.69251">
        <ele>85</ele>
        <time>2022-05-21T20:04:50Z</time>
      </trkpt>
      <trkpt lat="49.12184" lon="1.69405">
        <ele>78</ele>
        <time>2022-05-21T20:07:08Z</time>
      </trkpt>
      <trkpt lat="49.1213" lon="1.69375">
        <ele>83</ele>
        <time>2022-05-21T20:08:25Z</time>
      </trkpt>
      <trkpt lat="49.12083" lon="1.6933">
        <ele>88</ele>
        <time>2022-05-21T20:09:39Z</time>
      </trkpt>
      <trkpt lat="49.12005" lon="1.69298">
        <ele>94</ele>
        <time>2022-05-21T20:11:26Z</time>
      </trkpt>
      <trkpt lat="49.11969" lon="1.6935">
        <ele>96</ele>
        <time>2022-05-21T20:12:33Z</time>
      </trkpt>
      <trkpt lat="49.11876" lon="1.69701">
        <ele>99</ele>
        <time>2022-05-21T20:18:03Z</time>
      </trkpt>
      <trkpt lat="49.1179" lon="1.69756">
        <ele>108</ele>
        <time>2022-05-21T20:20:08Z</time>
      </trkpt>
      <trkpt lat="49.11751" lon="1.69817">
        <ele>112</ele>
        <time>2022-05-21T20:21:22Z</time>
      </trkpt>
      <trkpt lat="49.1158" lon="1.70068">
        <ele>123</ele>
        <time>2022-05-21T20:26:39Z</time>
      </trkpt>
      <trkpt lat="49.11518" lon="1.70188">
        <ele>129</ele>
        <time>2022-05-21T20:28:52Z</time>
      </trkpt>
      <trkpt lat="49.11479" lon="1.7026">
        <ele>130</ele>
        <time>2022-05-21T20:30:14Z</time>
      </trkpt>
      <trkpt lat="49.11408" lon="1.70364">
        <ele>134</ele>
        <time>2022-05-21T20:32:25Z</time>
      </trkpt>
      <trkpt lat="49.11335" lon="1.7044">
        <ele>135</ele>
        <time>2022-05-21T20:34:23Z</time>
      </trkpt>
      <trkpt lat="49.11256" lon="1.70507">
        <ele>138</ele>
        <time>2022-05-21T20:36:24Z</time>
      </trkpt>
      <trkpt lat="49.11006" lon="1.70726">
        <ele>135</ele>
        <time>2022-05-21T20:42:48Z</time>
      </trkpt>
      <trkpt lat="49.10958" lon="1.7076">
        <ele>134</ele>
        <time>2022-05-21T20:43:59Z</time>
      </trkpt>
      <trkpt lat="49.10899" lon="1.70859">
        <ele>131</ele>
        <time>2022-05-21T20:45:56Z</time>
      </trkpt>
      <trkpt lat="49.10845" lon="1.70956">
        <ele>129</ele>
        <time>2022-05-21T20:47:47Z</time>
      </trkpt>
      <trkpt lat="49.10763" lon="1.71176">
        <ele>135</ele>
        <time>2022-05-21T20:51:28Z</time>
      </trkpt>
      <trkpt lat="49.10891" lon="1.71171">
        <ele>129</ele>
        <time>2022-05-21T20:54:19Z</time>
      </trkpt>
      <trkpt lat="49.11127" lon="1.71199">
        <ele>131</ele>
        <time>2022-05-21T20:59:35Z</time>
      </trkpt>
      <trkpt lat="49.11342" lon="1.71268">
        <ele>116</ele>
        <time>2022-05-21T21:04:28Z</time>
      </trkpt>
      <trkpt lat="49.11381" lon="1.71235">
        <ele>115</ele>
        <time>2022-05-21T21:05:27Z</time>
      </trkpt>
      <trkpt lat="49.11432" lon="1.71168">
        <ele>113</ele>
        <time>2022-05-21T21:06:57Z</time>
      </trkpt>
      <trkpt lat="49.11539" lon="1.71086">
        <ele>99</ele>
        <time>2022-05-21T21:09:37Z</time>
      </trkpt>
      <trkpt lat="49.1164" lon="1.71129">
        <ele>97</ele>
        <time>2022-05-21T21:11:57Z</time>
      </trkpt>
      <trkpt lat="49.11684" lon="1.71202">
        <ele>104</ele>
        <time>2022-05-21T21:13:24Z</time>
      </trkpt>
      <trkpt lat="49.11702" lon="1.71314">
        <ele>116</ele>
        <time>2022-05-21T21:15:04Z</time>
      </trkpt>
      <trkpt lat="49.1169" lon="1.7142">
        <ele>122</ele>
        <time>2022-05-21T21:16:38Z</time>
      </trkpt>
      <trkpt lat="49.11662" lon="1.71483">
        <ele>122</ele>
        <time>2022-05-21T21:17:45Z</time>
      </trkpt>
      <trkpt lat="49.11531" lon="1.71555">
        <ele>122</ele>
        <time>2022-05-21T21:20:51Z</time>
      </trkpt>
      <trkpt lat="49.11497" lon="1.71602">
        <ele>125</ele>
        <time>2022-05-21T21:21:52Z</time>
      </trkpt>
      <trkpt lat="49.11488" lon="1.71669">
        <ele>126</ele>
        <time>2022-05-21T21:22:51Z</time>
      </trkpt>
      <trkpt lat="49.11445" lon="1.71733">
        <ele>125</ele>
        <time>2022-05-21T21:24:12Z</time>
      </trkpt>
      <trkpt lat="49.11518" lon="1.71849">
        <ele>132</ele>
        <time>2022-05-21T21:26:32Z</time>
      </trkpt>
      <trkpt lat="49.11502" lon="1.71961">
        <ele>131</ele>
        <time>2022-05-21T21:28:12Z</time>
      </trkpt>
      <trkpt lat="49.11537" lon="1.72117">
        <ele>134</ele>
        <time>2022-05-21T21:30:36Z</time>
      </trkpt>
      <trkpt lat="49.11614" lon="1.72303">
        <ele>138</ele>
        <time>2022-05-21T21:33:49Z</time>
      </trkpt>
      <trkpt lat="49.11751" lon="1.72568">
        <ele>141</ele>
        <time>2022-05-21T21:38:43Z</time>
      </trkpt>
      <trkpt lat="49.11861" lon="1.72756">
        <ele>138</ele>
        <time>2022-05-21T21:42:24Z</time>
      </trkpt>
      <trkpt lat="49.1198" lon="1.73118">
        <ele>134</ele>
        <time>2022-05-21T21:48:18Z</time>
      </trkpt>
      <trkpt lat="49.12079" lon="1.73436">
        <ele>129</ele>
        <time>2022-05-21T21:53:25Z</time>
      </trkpt>
      <trkpt lat="49.12126" lon="1.73509">
        <ele>129</ele>
        <time>2022-05-21T21:54:55Z</time>
      </trkpt>
      <trkpt lat="49.12175" lon="1.73738">
        <ele>121</ele>
        <time>2022-05-21T21:58:25Z</time>
      </trkpt>
      <trkpt lat="49.12226" lon="1.73832">
        <ele>112</ele>
        <time>2022-05-21T22:00:12Z</time>
      </trkpt>
      <trkpt lat="49.12296" lon="1.73909">
        <ele>103</ele>
        <time>2022-05-21T22:02:07Z</time>
      </trkpt>
      <trkpt lat="49.12338" lon="1.73938">
        <ele>102</ele>
        <time>2022-05-21T22:03:08Z</time>
      </trkpt>
      <trkpt lat="49.12364" lon="1.73993">
        <ele>94</ele>
        <time>2022-05-21T22:04:07Z</time>
      </trkpt>
      <trkpt lat="49.12364" lon="1.74032">
        <ele>92</ele>
        <time>2022-05-21T22:04:42Z</time>
      </trkpt>
      <trkpt lat="49.12367" lon="1.74108">
        <ele>92</ele>
        <time>2022-05-21T22:05:48Z</time>
      </trkpt>
      <trkpt lat="49.12351" lon="1.74187">
        <ele>99</ele>
        <time>2022-05-21T22:07:00Z</time>
      </trkpt>
      <trkpt lat="49.12366" lon="1.74224">
        <ele>102</ele>
        <time>2022-05-21T22:07:38Z</time>
      </trkpt>
      <trkpt lat="49.12408" lon="1.74262">
        <ele>102</ele>
        <time>2022-05-21T22:08:43Z</time>
      </trkpt>
      <trkpt lat="49.12421" lon="1.74286">
        <ele>102</ele>
        <time>2022-05-21T22:09:11Z</time>
      </trkpt>
      <trkpt lat="49.1248" lon="1.74339">
        <ele>100</ele>
        <time>2022-05-21T22:10:42Z</time>
      </trkpt>
      <trkpt lat="49.12506" lon="1.74404">
        <ele>102</ele>
        <time>2022-05-21T22:11:48Z</time>
      </trkpt>
      <trkpt lat="49.12524" lon="1.74463">
        <ele>106</ele>
        <time>2022-05-21T22:12:45Z</time>
      </trkpt>
      <trkpt lat="49.12532" lon="1.74494">
        <ele>108</ele>
        <time>2022-05-21T22:13:14Z</time>
      </trkpt>
      <trkpt lat="49.12577" lon="1.74516">
        <ele>109</ele>
        <time>2022-05-21T22:14:17Z</time>
      </trkpt>
      <trkpt lat="49.12577" lon="1.74497">
        <ele>108</ele>
        <time>2022-05-21T22:14:34Z</time>
      </trkpt>
      <trkpt lat="49.12619" lon="1.74421">
        <ele>102</ele>
        <time>2022-05-21T22:16:01Z</time>
      </trkpt>
      <trkpt lat="49.1267" lon="1.74334">
        <ele>93</ele>
        <time>2022-05-21T22:17:43Z</time>
      </trkpt>
      <trkpt lat="49.12778" lon="1.74123">
        <ele>83</ele>
        <time>2022-05-21T22:21:37Z</time>
      </trkpt>
      <trkpt lat="49.12829" lon="1.74131">
        <ele>83</ele>
        <time>2022-05-21T22:22:45Z</time>
      </trkpt>
      <trkpt lat="49.12926" lon="1.7411">
        <ele>80</ele>
        <time>2022-05-21T22:24:56Z</time>
      </trkpt>
      <trkpt lat="49.13045" lon="1.74057">
        <ele>74</ele>
        <time>2022-05-21T22:27:41Z</time>
      </trkpt>
      <trkpt lat="49.13083" lon="1.74069">
        <ele>73</ele>
        <time>2022-05-21T22:28:33Z</time>
      </trkpt>
      <trkpt lat="49.13137" lon="1.74127">
        <ele>73</ele>
        <time>2022-05-21T22:30:01Z</time>
      </trkpt>
      <trkpt lat="49.13285" lon="1.74369">
        <ele>74</ele>
        <time>2022-05-21T22:34:50Z</time>
      </trkpt>
      <trkpt lat="49.13328" lon="1.74305">
        <ele>74</ele>
        <time>2022-05-21T22:36:11Z</time>
      </trkpt>
      <trkpt lat="49.13347" lon="1.74218">
        <ele>72</ele>
        <time>2022-05-21T22:37:31Z</time>
      </trkpt>
      <trkpt lat="49.1337" lon="1.73837">
        <ele>90</ele>
        <time>2022-05-21T22:43:05Z</time>
      </trkpt>
      <trkpt lat="49.13412" lon="1.73677">
        <ele>103</ele>
        <time>2022-05-21T22:45:35Z</time>
      </trkpt>
      <trkpt lat="49.1348" lon="1.7352">
        <ele>113</ele>
        <time>2022-05-21T22:48:20Z</time>
      </trkpt>
      <trkpt lat="49.13513" lon="1.73316">
        <ele>119</ele>
        <time>2022-05-21T22:51:23Z</time>
      </trkpt>
      <trkpt lat="49.13601" lon="1.73138">
        <ele>124</ele>
        <time>2022-05-21T22:54:38Z</time>
      </trkpt>
      <trkpt lat="49.13648" lon="1.73073">
        <ele>126</ele>
        <time>2022-05-21T22:56:02Z</time>
      </trkpt>
      <trkpt lat="49.137" lon="1.72962">
        <ele>128</ele>
        <time>2022-05-21T22:58:02Z</time>
      </trkpt>
      <trkpt lat="49.13974" lon="1.72399">
        <ele>127</ele>
        <time>2022-05-21T23:08:14Z</time>
      </trkpt>
      <trkpt lat="49.14034" lon="1.72152">
        <ele>125</ele>
        <time>2022-05-21T23:12:04Z</time>
      </trkpt>
      <trkpt lat="49.14035" lon="1.72077">
        <ele>124</ele>
        <time>2022-05-21T23:13:10Z</time>
      </trkpt>
      <trkpt lat="49.1405" lon="1.72022">
        <ele>123</ele>
        <time>2022-05-21T23:14:02Z</time>
      </trkpt>
      <trkpt lat="49.14043" lon="1.71969">
        <ele>122</ele>
        <time>2022-05-21T23:14:49Z</time>
      </trkpt>
      <trkpt lat="49.14098" lon="1.71955">
        <ele>120</ele>
        <time>2022-05-21T23:16:03Z</time>
      </trkpt>
      <trkpt lat="49.14185" lon="1.71896">
        <ele>114</ele>
        <time>2022-05-21T23:18:10Z</time>
      </trkpt>
      <trkpt lat="49.14272" lon="1.71921">
        <ele>107</ele>
        <time>2022-05-21T23:20:09Z</time>
      </trkpt>
      <trkpt lat="49.14482" lon="1.72233">
        <ele>79</ele>
        <time>2022-05-21T23:26:39Z</time>
      </trkpt>
      <trkpt lat="49.14512" lon="1.7234">
        <ele>72</ele>
        <time>2022-05-21T23:28:21Z</time>
      </trkpt>
      <trkpt lat="49.14592" lon="1.7234">
        <ele>61</ele>
        <time>2022-05-21T23:30:08Z</time>
      </trkpt>
      <trkpt lat="49.14622" lon="1.72381">
        <ele>57</ele>
        <time>2022-05-21T23:31:01Z</time>
      </trkpt>
      <trkpt lat="49.14692" lon="1.72447">
        <ele>50</ele>
        <time>2022-05-21T23:32:51Z</time>
      </trkpt>
      <trkpt lat="49.14846" lon="1.72473">
        <ele>52</ele>
        <time>2022-05-21T23:36:18Z</time>
      </trkpt>
      <trkpt lat="49.15043" lon="1.7261">
        <ele>73</ele>
        <time>2022-05-21T23:41:07Z</time>
      </trkpt>
      <trkpt lat="49.15099" lon="1.72636">
        <ele>78</ele>
        <time>2022-05-21T23:42:25Z</time>
      </trkpt>
      <trkpt lat="49.15193" lon="1.72763">
        <ele>86</ele>
        <time>2022-05-21T23:45:12Z</time>
      </trkpt>
      <trkpt lat="49.1516" lon="1.72927">
        <ele>92</ele>
        <time>2022-05-21T23:47:42Z</time>
      </trkpt>
      <trkpt lat="49.15116" lon="1.73034">
        <ele>87</ele>
        <time>2022-05-21T23:49:32Z</time>
      </trkpt>
      <trkpt lat="49.15126" lon="1.73131">
        <ele>87</ele>
        <time>2022-05-21T23:50:58Z</time>
      </trkpt>
      <trkpt lat="49.15123" lon="1.73355">
        <ele>87</ele>
        <time>2022-05-21T23:54:14Z</time>
      </trkpt>
      <trkpt lat="49.15213" lon="1.73815">
        <ele>84</ele>
        <time>2022-05-22T00:01:13Z</time>
      </trkpt>
      <trkpt lat="49.15093" lon="1.73789">
        <ele>79</ele>
        <time>2022-05-22T00:03:54Z</time>
      </trkpt>
      <trkpt lat="49.14919" lon="1.73789">
        <ele>76</ele>
        <time>2022-05-22T00:07:47Z</time>
      </trkpt>
      <trkpt lat="49.14849" lon="1.73851">
        <ele>75</ele>
        <time>2022-05-22T00:09:35Z</time>
      </trkpt>
      <trkpt lat="49.14719" lon="1.74381">
        <ele>72</ele>
        <time>2022-05-22T00:17:49Z</time>
      </trkpt>
      <trkpt lat="49.14662" lon="1.74739">
        <ele>65</ele>
        <time>2022-05-22T00:23:10Z</time>
      </trkpt>
      <trkpt lat="49.14587" lon="1.74932">
        <ele>59</ele>
        <time>2022-05-22T00:26:26Z</time>
      </trkpt>
      <trkpt lat="49.14529" lon="1.75283">
        <ele>62</ele>
        <time>2022-05-22T00:31:42Z</time>
      </trkpt>
      <trkpt lat="49.14651" lon="1.75715">
        <ele>65</ele>
        <time>2022-05-22T00:38:33Z</time>
      </trkpt>
      <trkpt lat="49.14688" lon="1.75955">
        <ele>63</ele>
        <time>2022-05-22T00:42:08Z</time>
      </trkpt>
      <trkpt lat="49.14799" lon="1.76304">
        <ele>65</ele>
        <time>2022-05-22T00:47:47Z</time>
      </trkpt>
      <trkpt lat="49.14819" lon="1.7644">
        <ele>64</ele>
        <time>2022-05-22T00:49:49Z</time>
      </trkpt>
      <trkpt lat="49.14893" lon="1.7665">
        <ele>62</ele>
        <time>2022-05-22T00:53:17Z</time>
      </trkpt>
      <trkpt lat="49.15046" lon="1.76883">
        <ele>67</ele>
        <time>2022-05-22T00:58:05Z</time>
      </trkpt>
      <trkpt lat="49.1494" lon="1.76959">
        <ele>61</ele>
        <time>2022-05-22T01:00:41Z</time>
      </trkpt>
      <trkpt lat="49.14809" lon="1.77032">
        <ele>65</ele>
        <time>2022-05-22T01:03:47Z</time>
      </trkpt>
      <trkpt lat="49.14786" lon="1.76987">
        <ele>65</ele>
        <time>2022-05-22T01:04:37Z</time>
      </trkpt>
      <trkpt lat="49.14759" lon="1.76951">
        <ele>65</ele>
        <time>2022-05-22T01:05:25Z</time>
      </trkpt>
      <trkpt lat="49.14761" lon="1.76951">
        <ele>65</ele>
        <time>2022-05-22T01:05:28Z</time>
      </trkpt>
    </trkseg>
  </trk>
</gpx>